Terminal Aerodrome Forecast
Issued by NWS

Home | Current Version | Previous Version | Text Only | Print | Product List | Glossary On
Versions: 1 2 3 4 5 6 7 8 9 10 11 12 13 14
000
FTUS45 KRIW 201139
TAFWRL
TAF
KWRL 201139Z 2012/2112 20005KT P6SM SCT050 OVC080
     FM201900 VRB05KT P6SM SCT080
     FM210700 VRB04KT 3SM BR SCT005=

USA.gov is the U.S. government's official web portal to all federal, state and local government web resources and services.